createdAt,value
2023-10-06T00:04:00.947Z,98447.09
2023-10-06T00:08:06.166Z,98455.38
2023-10-06T00:12:14.425Z,98452.72
2023-10-06T00:16:17.802Z,98446.38
2023-10-06T00:20:28.068Z,98461.88
2023-10-06T00:24:32.572Z,98457.31
2023-10-06T00:28:37.674Z,98460.03
2023-10-06T00:32:43.405Z,98454.84
2023-10-06T00:36:52.740Z,98460.78
2023-10-06T00:40:56.295Z,98458.09
2023-10-06T00:45:00.361Z,98456.94
2023-10-06T00:49:05.817Z,98454.94
2023-10-06T00:53:11.156Z,98453.63
2023-10-06T00:57:17.341Z,98453.28
2023-10-06T01:01:22.536Z,98458.50
2023-10-06T01:05:26.876Z,98451.81
2023-10-06T01:09:32.426Z,98457.06
2023-10-06T01:13:35.324Z,98458.25
2023-10-06T01:17:39.457Z,98448.84
2023-10-06T01:21:44.493Z,98449.34
2023-10-06T01:25:50.484Z,98447.19
2023-10-06T01:30:10.095Z,98450.88
2023-10-06T01:34:13.754Z,98459.97
2023-10-06T01:38:23.520Z,98449.41
2023-10-06T01:42:28.529Z,98449.06
2023-10-06T01:46:31.195Z,98448.94
2023-10-06T01:50:37.336Z,98460.69
2023-10-06T01:54:39.997Z,98454.31
2023-10-06T01:58:44.091Z,98448.25
2023-10-06T02:02:51.766Z,98457.84
2023-10-06T02:06:54.567Z,98463.41
2023-10-06T02:10:57.327Z,98459.53
2023-10-06T02:15:01.884Z,98454.84
2023-10-06T02:19:10.200Z,98454.19
2023-10-06T02:23:14.846Z,98456.72
2023-10-06T02:27:18.196Z,98456.53
2023-10-06T02:31:29.170Z,98451.00
2023-10-06T02:35:31.943Z,98449.16
2023-10-06T02:39:35.352Z,98442.06
2023-10-06T02:43:41.798Z,98454.53
2023-10-06T02:47:46.125Z,98445.28
2023-10-06T02:51:51.861Z,98439.38
2023-10-06T02:55:56.947Z,98439.38
2023-10-06T03:00:20.074Z,98444.97
2023-10-06T03:04:27.112Z,98449.31
2023-10-06T03:08:31.291Z,98458.06
2023-10-06T03:12:34.227Z,98460.09
2023-10-06T03:16:40.613Z,98458.22
2023-10-06T03:20:48.208Z,98460.25
2023-10-06T03:24:59.119Z,98457.38
2023-10-06T03:29:04.502Z,98459.41
2023-10-06T03:33:12.885Z,98449.97
2023-10-06T03:37:26.529Z,98454.81
2023-10-06T03:41:32.634Z,98459.88
2023-10-06T03:45:36.129Z,98447.91
2023-10-06T03:49:40.963Z,98447.53
2023-10-06T03:53:48.423Z,98442.22
2023-10-06T03:57:51.085Z,98440.50
2023-10-06T04:01:53.938Z,98445.41
2023-10-06T04:05:56.763Z,98450.66
2023-10-06T04:10:04.649Z,98442.59
2023-10-06T04:14:07.632Z,98457.19
2023-10-06T04:18:11.646Z,98451.28
2023-10-06T04:22:14.330Z,98452.94
2023-10-06T04:26:19.300Z,98457.09
2023-10-06T04:30:22.540Z,98457.91
2023-10-06T04:34:34.928Z,98458.97
2023-10-06T04:38:39.929Z,98456.97
2023-10-06T04:42:44.028Z,98460.28
2023-10-06T04:46:46.730Z,98445.50
2023-10-06T04:50:51.636Z,98448.59
2023-10-06T04:54:54.453Z,98448.94
2023-10-06T04:58:58.599Z,98449.88
2023-10-06T05:03:05.484Z,98439.84
2023-10-06T05:07:08.387Z,98450.63
2023-10-06T05:11:12.750Z,98453.59
2023-10-06T05:15:24.845Z,98452.31
2023-10-06T05:19:28.304Z,98457.03
2023-10-06T05:23:32.227Z,98461.22
2023-10-06T05:27:35.945Z,98463.53
2023-10-06T05:31:40.140Z,98471.59
2023-10-06T05:35:43.897Z,98478.00
2023-10-06T05:39:47.895Z,98479.34
2023-10-06T05:43:51.044Z,98480.16
2023-10-06T05:47:56.215Z,98488.56
2023-10-06T05:51:59.315Z,98485.56
2023-10-06T05:56:03.830Z,98487.59
2023-10-06T06:00:09.354Z,98492.28
2023-10-06T06:04:13.388Z,98496.19
2023-10-06T06:08:16.109Z,98497.66
2023-10-06T06:12:22.752Z,98498.97
2023-10-06T06:16:25.844Z,98494.91
2023-10-06T06:20:30.593Z,98500.09
2023-10-06T06:24:34.154Z,98502.13
2023-10-06T06:28:37.818Z,98498.69
2023-10-06T06:32:40.668Z,98504.75
2023-10-06T06:36:46.327Z,98519.69
2023-10-06T06:40:49.298Z,98524.09
2023-10-06T06:44:52.667Z,98511.13
2023-10-06T06:48:55.707Z,98510.66
2023-10-06T06:52:59.758Z,98505.13
2023-10-06T06:57:03.895Z,98515.91
2023-10-06T07:01:08.584Z,98525.00
2023-10-06T07:05:12.824Z,98520.28
2023-10-06T07:09:18.966Z,98517.09
2023-10-06T07:13:23.409Z,98522.66
2023-10-06T07:17:26.259Z,98533.59
2023-10-06T07:21:29.490Z,98514.72
2023-10-06T07:25:33.553Z,98518.94
2023-10-06T07:29:36.222Z,98523.28
2023-10-06T07:33:39.654Z,98514.34
2023-10-06T07:37:44.285Z,98513.81
2023-10-06T07:41:48.856Z,98511.25
2023-10-06T07:45:53.211Z,98515.44
2023-10-06T07:49:57.510Z,98508.53
2023-10-06T07:54:00.416Z,98493.34
2023-10-06T07:58:06.579Z,98485.72
2023-10-06T08:02:10.089Z,98475.25
2023-10-06T08:06:14.947Z,98466.63
2023-10-06T08:10:19.721Z,98474.25
2023-10-06T08:14:26.057Z,98486.25
2023-10-06T08:18:30.825Z,98480.19
2023-10-06T08:22:35.104Z,98483.94
2023-10-06T08:26:38.266Z,98481.13
2023-10-06T08:30:42.333Z,98494.13
2023-10-06T08:34:47.289Z,98493.94
2023-10-06T08:38:49.978Z,98497.38
2023-10-06T08:42:54.806Z,98513.97
2023-10-06T08:47:06.529Z,98523.78
2023-10-06T08:51:15.999Z,98516.16
2023-10-06T08:55:19.178Z,98516.22
2023-10-06T08:59:21.879Z,98501.41
2023-10-06T09:03:28.507Z,98494.91
2023-10-06T09:07:32.860Z,98487.19
2023-10-06T09:11:41.988Z,98483.88
2023-10-06T09:15:46.089Z,98497.69
2023-10-06T09:19:50.234Z,98489.06
2023-10-06T09:23:57.388Z,98486.09
2023-10-06T09:28:05.107Z,98501.69
2023-10-06T09:32:21.737Z,98499.34
2023-10-06T09:36:43.758Z,98488.22
2023-10-06T09:40:48.641Z,98493.81
2023-10-06T09:45:08.249Z,98483.88
2023-10-06T09:49:17.181Z,98472.91
2023-10-06T09:53:22.815Z,98466.25
2023-10-06T09:57:26.835Z,98453.09
2023-10-06T10:01:32.831Z,98452.13
2023-10-06T10:05:39.238Z,98446.78
2023-10-06T10:09:44.784Z,98438.09
2023-10-06T10:14:07.711Z,98443.66
2023-10-06T10:18:19.543Z,98438.97
2023-10-06T10:22:22.534Z,98442.06
2023-10-06T10:26:29.551Z,98433.03
2023-10-06T10:30:51.723Z,98428.81
2023-10-06T10:35:13.985Z,98428.84
2023-10-06T10:39:20.886Z,98433.75
2023-10-06T10:43:24.911Z,98436.69
2023-10-06T10:47:27.871Z,98427.56
2023-10-06T10:51:34.385Z,98403.06
2023-10-06T10:55:38.556Z,98388.63
2023-10-06T11:00:15.187Z,98368.53
2023-10-06T11:04:26.403Z,98372.94
2023-10-06T11:08:40.544Z,98370.41
2023-10-06T11:12:43.241Z,98368.25
2023-10-06T11:16:48.249Z,98364.81
2023-10-06T11:20:51.159Z,98362.81
2023-10-06T11:24:58.473Z,98343.09
2023-10-06T11:29:01.882Z,98338.69
2023-10-06T11:33:07.320Z,98319.06
2023-10-06T11:37:10.186Z,98301.34
2023-10-06T11:41:12.870Z,98296.06
2023-10-06T11:45:26.561Z,98289.44
2023-10-06T11:49:30.624Z,98280.88
2023-10-06T11:53:34.114Z,98284.91
2023-10-06T11:57:46.056Z,98282.13
2023-10-06T12:01:48.734Z,98277.59
2023-10-06T12:05:57.531Z,98290.66
2023-10-06T12:10:04.698Z,98299.09
2023-10-06T12:14:07.579Z,98285.41
2023-10-06T12:18:11.614Z,98285.56
2023-10-06T12:22:17.238Z,98280.41
2023-10-06T12:26:23.746Z,98268.28
2023-10-06T12:30:26.700Z,98271.69
2023-10-06T12:34:29.698Z,98273.44
2023-10-06T12:38:33.766Z,98269.00
2023-10-06T12:42:36.443Z,98268.31
2023-10-06T12:46:39.468Z,98257.34
2023-10-06T12:50:43.527Z,98251.22
2023-10-06T12:54:49.512Z,98249.88
2023-10-06T12:58:52.193Z,98246.06
2023-10-06T13:02:55.119Z,98242.47
2023-10-06T13:07:00.021Z,98238.78
2023-10-06T13:11:05.516Z,98237.81
2023-10-06T13:15:11.012Z,98236.72
2023-10-06T13:19:13.710Z,98238.38
2023-10-06T13:23:16.792Z,98232.00
2023-10-06T13:27:20.927Z,98227.63
2023-10-06T13:31:23.643Z,98222.13
2023-10-06T13:35:27.014Z,98215.16
2023-10-06T13:39:29.717Z,98210.25
2023-10-06T13:43:34.037Z,98204.75
2023-10-06T13:47:39.206Z,98199.44
2023-10-06T13:51:42.911Z,98209.69
2023-10-06T13:55:46.714Z,98205.94
2023-10-06T13:59:50.934Z,98191.31
2023-10-06T14:03:53.728Z,98184.78
2023-10-06T14:07:56.468Z,98184.09
2023-10-06T14:12:01.382Z,98192.34
2023-10-06T14:16:11.203Z,98172.97
2023-10-06T14:20:24.810Z,98177.25
2023-10-06T14:24:28.261Z,98176.97
2023-10-06T14:28:31.104Z,98196.09
2023-10-06T14:32:44.004Z,98194.59
2023-10-06T14:36:47.738Z,98192.81
2023-10-06T14:41:27.014Z,98191.34
2023-10-06T14:45:47.000Z,98180.22
2023-10-06T14:55:19.172Z,98188.44
2023-10-06T14:59:22.517Z,98181.78
2023-10-06T15:03:25.240Z,98156.81
2023-10-06T15:07:28.281Z,98155.44
2023-10-06T15:11:32.417Z,98149.81
2023-10-06T15:15:35.157Z,98135.34
2023-10-06T15:19:38.044Z,98141.09
2023-10-06T15:23:41.144Z,98138.72
2023-10-06T15:27:45.191Z,98135.75
2023-10-06T15:31:49.415Z,98120.22
2023-10-06T15:35:53.414Z,98117.44
2023-10-06T15:39:56.083Z,98109.13
2023-10-06T15:44:02.888Z,98105.47
2023-10-06T15:48:10.281Z,98106.50
2023-10-06T15:52:12.984Z,98106.09
2023-10-06T15:56:17.606Z,98100.16
2023-10-06T16:00:24.074Z,98103.41
2023-10-06T16:04:28.118Z,98100.69
2023-10-06T16:08:30.806Z,98105.75
2023-10-06T16:12:33.541Z,98112.50
2023-10-06T16:16:37.661Z,98108.81
2023-10-06T16:20:41.697Z,98114.38
2023-10-06T16:24:44.446Z,98111.84
2023-10-06T16:28:47.132Z,98114.47
2023-10-06T16:32:51.353Z,98131.03
2023-10-06T16:36:54.130Z,98126.75
2023-10-06T16:41:01.200Z,98135.91
2023-10-06T16:45:05.614Z,98131.31
2023-10-06T16:49:10.035Z,98130.41
2023-10-06T16:53:13.176Z,98143.03
2023-10-06T16:57:15.845Z,98141.59
2023-10-06T17:01:18.652Z,98153.47
2023-10-06T17:05:23.256Z,98143.84
2023-10-06T17:09:32.147Z,98139.09
2023-10-06T17:13:34.831Z,98151.31
2023-10-06T17:17:39.183Z,98156.00
2023-10-06T17:21:45.189Z,98151.47
2023-10-06T17:25:49.237Z,98148.06
2023-10-06T17:29:56.665Z,98149.38
2023-10-06T17:33:59.986Z,98139.78
2023-10-06T17:38:04.269Z,98146.88
2023-10-06T17:42:08.376Z,98149.25
2023-10-06T17:46:14.714Z,98150.66
2023-10-06T17:50:18.555Z,98139.81
2023-10-06T17:54:22.592Z,98166.25
2023-10-06T17:58:25.372Z,98163.88
2023-10-06T18:02:28.214Z,98166.41
2023-10-06T18:06:31.726Z,98163.97
2023-10-06T18:10:35.871Z,98161.97
2023-10-06T18:14:39.274Z,98156.78
2023-10-06T18:18:42.360Z,98160.78
2023-10-06T18:22:45.292Z,98162.53
2023-10-06T18:26:50.756Z,98171.56
2023-10-06T18:30:54.312Z,98164.06
2023-10-06T18:34:57.082Z,98161.22
2023-10-06T18:38:59.784Z,98161.03
2023-10-06T18:43:04.100Z,98162.31
2023-10-06T18:47:06.831Z,98163.19
2023-10-06T18:51:09.612Z,98160.22
2023-10-06T18:55:13.931Z,98154.59
2023-10-06T18:59:18.004Z,98146.91
2023-10-06T19:03:23.675Z,98149.63
2023-10-06T19:07:28.690Z,98161.53
2023-10-06T19:11:31.418Z,98164.44
2023-10-06T19:15:40.818Z,98176.31
2023-10-06T19:19:43.582Z,98164.41
2023-10-06T19:23:47.054Z,98176.09
2023-10-06T19:27:51.928Z,98162.50
2023-10-06T19:31:56.106Z,98155.44
2023-10-06T19:35:59.128Z,98160.00
2023-10-06T19:40:02.584Z,98156.44
2023-10-06T19:44:05.672Z,98156.00
2023-10-06T19:48:09.914Z,98166.00
2023-10-06T19:52:12.816Z,98155.38
2023-10-06T19:56:15.676Z,98153.28
2023-10-06T20:00:27.112Z,98156.81
2023-10-06T20:04:31.409Z,98142.59
2023-10-06T20:08:34.511Z,98147.38
2023-10-06T20:12:37.245Z,98158.41
2023-10-06T20:16:40.318Z,98161.13
2023-10-06T20:20:44.692Z,98164.63
2023-10-06T20:24:48.378Z,98165.22
2023-10-06T20:28:51.107Z,98162.94
2023-10-06T20:32:55.707Z,98167.91
2023-10-06T20:36:59.941Z,98157.47
2023-10-06T20:41:03.784Z,98164.34
2023-10-06T20:45:07.274Z,98163.25
2023-10-06T20:49:10.334Z,98167.78
2023-10-06T20:53:14.416Z,98171.09
2023-10-06T20:57:17.114Z,98161.91
2023-10-06T21:01:21.473Z,98167.06
2023-10-06T21:05:25.036Z,98167.03
2023-10-06T21:09:29.142Z,98165.34
2023-10-06T21:13:32.812Z,98161.44
2023-10-06T21:17:35.676Z,98165.13
2023-10-06T21:21:38.460Z,98172.31
2023-10-06T21:25:45.372Z,98169.59
2023-10-06T21:29:48.452Z,98162.72
2023-10-06T21:33:51.145Z,98174.09
2023-10-06T21:37:53.907Z,98172.78
2023-10-06T21:41:58.046Z,98175.03
2023-10-06T21:46:04.725Z,98173.34
2023-10-06T21:50:10.283Z,98179.53
2023-10-06T21:54:13.153Z,98177.41
2023-10-06T21:58:18.145Z,98172.56
2023-10-06T22:02:22.480Z,98176.47
2023-10-06T22:06:25.375Z,98176.19
2023-10-06T22:10:28.786Z,98169.66
2023-10-06T22:14:36.400Z,98167.31
2023-10-06T22:18:39.269Z,98163.34
2023-10-06T22:22:42.321Z,98168.09
2023-10-06T22:26:46.060Z,98174.97
2023-10-06T22:30:50.261Z,98173.91
2023-10-06T22:34:53.118Z,98176.13
2023-10-06T22:38:56.232Z,98176.69
2023-10-06T22:42:58.914Z,98175.16
2023-10-06T22:47:03.004Z,98178.22
2023-10-06T22:51:05.665Z,98179.28
2023-10-06T22:55:09.914Z,98177.59
2023-10-06T22:59:12.668Z,98176.22
2023-10-06T23:03:16.781Z,98175.13
2023-10-06T23:07:19.924Z,98176.72
2023-10-06T23:11:22.713Z,98179.59
2023-10-06T23:15:32.719Z,98178.66
2023-10-06T23:19:36.870Z,98184.06
2023-10-06T23:23:39.602Z,98169.81
2023-10-06T23:27:42.775Z,98174.31
2023-10-06T23:31:45.568Z,98170.03
2023-10-06T23:35:49.930Z,98179.81
2023-10-06T23:39:52.680Z,98177.78
2023-10-06T23:43:55.486Z,98171.31
2023-10-06T23:47:58.806Z,98165.75
2023-10-06T23:52:02.878Z,98168.56
2023-10-06T23:56:20.630Z,98165.38
